sensor_id;sensor_type;location;lat;lon;timestamp;P1;durP1;ratioP1;P2;durP2;ratioP2
63801;SDS011;49949;43.060;25.624;2023-08-07T00:00:27;9.73;;;7.45;;
63801;SDS011;49949;43.060;25.624;2023-08-07T00:02:53;18.95;;;7.47;;
63801;SDS011;49949;43.060;25.624;2023-08-07T00:05:19;14.75;;;7.50;;
63801;SDS011;49949;43.060;25.624;2023-08-07T00:07:44;13.02;;;7.60;;
63801;SDS011;49949;43.060;25.624;2023-08-07T00:10:11;11.70;;;7.72;;
63801;SDS011;49949;43.060;25.624;2023-08-07T00:12:38;9.77;;;7.50;;
63801;SDS011;49949;43.060;25.624;2023-08-07T00:15:04;13.05;;;7.70;;
63801;SDS011;49949;43.060;25.624;2023-08-07T00:17:30;17.42;;;8.32;;
63801;SDS011;49949;43.060;25.624;2023-08-07T00:19:56;13.20;;;8.20;;
63801;SDS011;49949;43.060;25.624;2023-08-07T00:22:22;12.18;;;7.05;;
63801;SDS011;49949;43.060;25.624;2023-08-07T00:24:48;12.70;;;7.70;;
63801;SDS011;49949;43.060;25.624;2023-08-07T00:27:14;12.63;;;7.13;;
63801;SDS011;49949;43.060;25.624;2023-08-07T00:29:40;9.60;;;6.93;;
63801;SDS011;49949;43.060;25.624;2023-08-07T00:32:05;11.48;;;7.25;;
63801;SDS011;49949;43.060;25.624;2023-08-07T00:34:31;11.95;;;6.78;;
63801;SDS011;49949;43.060;25.624;2023-08-07T00:36:57;14.05;;;7.65;;
63801;SDS011;49949;43.060;25.624;2023-08-07T00:39:23;10.68;;;7.22;;
63801;SDS011;49949;43.060;25.624;2023-08-07T00:41:49;10.95;;;6.60;;
63801;SDS011;49949;43.060;25.624;2023-08-07T00:44:15;14.93;;;8.15;;
63801;SDS011;49949;43.060;25.624;2023-08-07T00:46:41;16.60;;;8.57;;
63801;SDS011;49949;43.060;25.624;2023-08-07T00:49:08;14.45;;;8.15;;
63801;SDS011;49949;43.060;25.624;2023-08-07T00:51:37;15.25;;;9.07;;
63801;SDS011;49949;43.060;25.624;2023-08-07T00:54:03;13.57;;;10.10;;
63801;SDS011;49949;43.060;25.624;2023-08-07T00:56:30;15.18;;;8.40;;
63801;SDS011;49949;43.060;25.624;2023-08-07T00:58:57;9.70;;;7.70;;
63801;SDS011;49949;43.060;25.624;2023-08-07T01:01:24;14.75;;;8.02;;
63801;SDS011;49949;43.060;25.624;2023-08-07T01:03:50;9.52;;;6.95;;
63801;SDS011;49949;43.060;25.624;2023-08-07T01:06:16;9.65;;;6.50;;
63801;SDS011;49949;43.060;25.624;2023-08-07T01:08:42;15.55;;;6.70;;
63801;SDS011;49949;43.060;25.624;2023-08-07T01:14:02;15.82;;;8.57;;
63801;SDS011;49949;43.060;25.624;2023-08-07T01:16:52;24.17;;;7.78;;
63801;SDS011;49949;43.060;25.624;2023-08-07T01:19:28;17.52;;;6.93;;
63801;SDS011;49949;43.060;25.624;2023-08-07T01:22:14;22.15;;;7.53;;
63801;SDS011;49949;43.060;25.624;2023-08-07T01:24:50;13.20;;;6.82;;
63801;SDS011;49949;43.060;25.624;2023-08-07T01:29:56;16.35;;;6.78;;
63801;SDS011;49949;43.060;25.624;2023-08-07T01:35:07;20.00;;;6.72;;
63801;SDS011;49949;43.060;25.624;2023-08-07T01:37:37;14.45;;;6.88;;
63801;SDS011;49949;43.060;25.624;2023-08-07T01:40:05;12.32;;;7.65;;
63801;SDS011;49949;43.060;25.624;2023-08-07T01:42:32;19.85;;;7.18;;
63801;SDS011;49949;43.060;25.624;2023-08-07T01:44:58;25.92;;;7.88;;
63801;SDS011;49949;43.060;25.624;2023-08-07T01:47:24;20.23;;;7.45;;
63801;SDS011;49949;43.060;25.624;2023-08-07T01:49:49;18.27;;;6.97;;
63801;SDS011;49949;43.060;25.624;2023-08-07T01:52:15;11.27;;;7.18;;
63801;SDS011;49949;43.060;25.624;2023-08-07T01:54:41;19.05;;;7.35;;
63801;SDS011;49949;43.060;25.624;2023-08-07T01:57:06;20.08;;;7.40;;
63801;SDS011;49949;43.060;25.624;2023-08-07T01:59:32;25.20;;;8.48;;
63801;SDS011;49949;43.060;25.624;2023-08-07T02:01:58;19.33;;;9.40;;
63801;SDS011;49949;43.060;25.624;2023-08-07T02:04:24;19.98;;;8.10;;
63801;SDS011;49949;43.060;25.624;2023-08-07T02:06:49;9.73;;;6.30;;
63801;SDS011;49949;43.060;25.624;2023-08-07T02:09:15;13.25;;;6.50;;
63801;SDS011;49949;43.060;25.624;2023-08-07T02:11:40;9.43;;;6.45;;
63801;SDS011;49949;43.060;25.624;2023-08-07T02:14:07;11.05;;;5.97;;
63801;SDS011;49949;43.060;25.624;2023-08-07T02:16:33;12.95;;;6.53;;
63801;SDS011;49949;43.060;25.624;2023-08-07T02:18:59;9.40;;;6.20;;
63801;SDS011;49949;43.060;25.624;2023-08-07T02:21:24;12.85;;;6.43;;
63801;SDS011;49949;43.060;25.624;2023-08-07T02:23:50;9.80;;;6.32;;
63801;SDS011;49949;43.060;25.624;2023-08-07T02:26:16;17.33;;;7.40;;
63801;SDS011;49949;43.060;25.624;2023-08-07T02:28:41;14.82;;;7.63;;
63801;SDS011;49949;43.060;25.624;2023-08-07T02:31:07;13.07;;;7.68;;
63801;SDS011;49949;43.060;25.624;2023-08-07T02:33:33;22.10;;;6.38;;
63801;SDS011;49949;43.060;25.624;2023-08-07T02:35:58;10.70;;;6.28;;
63801;SDS011;49949;43.060;25.624;2023-08-07T02:38:24;12.40;;;8.02;;
63801;SDS011;49949;43.060;25.624;2023-08-07T02:40:51;11.57;;;6.13;;
63801;SDS011;49949;43.060;25.624;2023-08-07T02:43:16;19.52;;;6.43;;
63801;SDS011;49949;43.060;25.624;2023-08-07T02:45:42;9.25;;;6.18;;
63801;SDS011;49949;43.060;25.624;2023-08-07T02:48:08;14.45;;;6.55;;
63801;SDS011;49949;43.060;25.624;2023-08-07T02:50:33;11.93;;;6.05;;
63801;SDS011;49949;43.060;25.624;2023-08-07T02:53:00;9.52;;;6.13;;
63801;SDS011;49949;43.060;25.624;2023-08-07T02:55:26;27.90;;;7.25;;
63801;SDS011;49949;43.060;25.624;2023-08-07T02:57:52;14.77;;;6.00;;
63801;SDS011;49949;43.060;25.624;2023-08-07T03:00:18;10.15;;;5.30;;
63801;SDS011;49949;43.060;25.624;2023-08-07T03:02:43;12.93;;;6.38;;
63801;SDS011;49949;43.060;25.624;2023-08-07T03:05:09;11.07;;;6.18;;
63801;SDS011;49949;43.060;25.624;2023-08-07T03:07:35;17.58;;;8.80;;
63801;SDS011;49949;43.060;25.624;2023-08-07T03:10:00;9.40;;;6.28;;
63801;SDS011;49949;43.060;25.624;2023-08-07T03:12:26;9.38;;;6.00;;
63801;SDS011;49949;43.060;25.624;2023-08-07T03:14:52;8.68;;;5.25;;
63801;SDS011;49949;43.060;25.624;2023-08-07T03:17:17;15.43;;;6.00;;
63801;SDS011;49949;43.060;25.624;2023-08-07T03:19:43;9.82;;;6.13;;
63801;SDS011;49949;43.060;25.624;2023-08-07T03:22:09;11.32;;;6.95;;
63801;SDS011;49949;43.060;25.624;2023-08-07T03:24:35;9.65;;;8.68;;
63801;SDS011;49949;43.060;25.624;2023-08-07T03:27:01;15.40;;;7.70;;
63801;SDS011;49949;43.060;25.624;2023-08-07T03:29:26;9.57;;;6.28;;
63801;SDS011;49949;43.060;25.624;2023-08-07T03:31:52;11.63;;;6.47;;
63801;SDS011;49949;43.060;25.624;2023-08-07T03:34:18;16.52;;;6.78;;
63801;SDS011;49949;43.060;25.624;2023-08-07T03:36:44;13.10;;;6.65;;
63801;SDS011;49949;43.060;25.624;2023-08-07T03:39:10;10.77;;;6.75;;
63801;SDS011;49949;43.060;25.624;2023-08-07T03:41:37;11.02;;;5.78;;
63801;SDS011;49949;43.060;25.624;2023-08-07T03:44:03;12.10;;;6.20;;
63801;SDS011;49949;43.060;25.624;2023-08-07T03:46:29;12.38;;;6.43;;
63801;SDS011;49949;43.060;25.624;2023-08-07T03:48:55;13.10;;;7.63;;
63801;SDS011;49949;43.060;25.624;2023-08-07T03:51:20;12.80;;;6.90;;
63801;SDS011;49949;43.060;25.624;2023-08-07T03:53:46;7.55;;;6.88;;
63801;SDS011;49949;43.060;25.624;2023-08-07T03:56:12;9.15;;;6.65;;
63801;SDS011;49949;43.060;25.624;2023-08-07T03:58:37;25.80;;;7.47;;
63801;SDS011;49949;43.060;25.624;2023-08-07T04:01:03;16.13;;;6.88;;
63801;SDS011;49949;43.060;25.624;2023-08-07T04:03:29;10.80;;;4.72;;
63801;SDS011;49949;43.060;25.624;2023-08-07T04:05:55;4.22;;;3.83;;
63801;SDS011;49949;43.060;25.624;2023-08-07T04:08:21;4.15;;;3.78;;
63801;SDS011;49949;43.060;25.624;2023-08-07T04:13:29;8.60;;;3.22;;
63801;SDS011;49949;43.060;25.624;2023-08-07T04:15:55;8.95;;;3.28;;
63801;SDS011;49949;43.060;25.624;2023-08-07T04:18:21;4.80;;;2.90;;
63801;SDS011;49949;43.060;25.624;2023-08-07T04:20:55;3.72;;;2.50;;
63801;SDS011;49949;43.060;25.624;2023-08-07T04:23:22;3.97;;;2.42;;
63801;SDS011;49949;43.060;25.624;2023-08-07T04:25:48;2.85;;;2.50;;
63801;SDS011;49949;43.060;25.624;2023-08-07T04:28:14;2.25;;;1.90;;
63801;SDS011;49949;43.060;25.624;2023-08-07T04:30:40;7.25;;;2.60;;
63801;SDS011;49949;43.060;25.624;2023-08-07T04:33:07;3.42;;;2.00;;
63801;SDS011;49949;43.060;25.624;2023-08-07T04:35:33;3.67;;;2.50;;
63801;SDS011;49949;43.060;25.624;2023-08-07T04:37:59;5.07;;;2.40;;
63801;SDS011;49949;43.060;25.624;2023-08-07T04:40:25;9.60;;;2.45;;
63801;SDS011;49949;43.060;25.624;2023-08-07T04:42:51;3.08;;;2.00;;
63801;SDS011;49949;43.060;25.624;2023-08-07T04:45:16;9.05;;;2.42;;
63801;SDS011;49949;43.060;25.624;2023-08-07T04:47:42;3.08;;;1.70;;
63801;SDS011;49949;43.060;25.624;2023-08-07T04:50:08;2.83;;;2.00;;
63801;SDS011;49949;43.060;25.624;2023-08-07T04:52:34;5.07;;;2.38;;
63801;SDS011;49949;43.060;25.624;2023-08-07T04:55:01;2.60;;;2.40;;
63801;SDS011;49949;43.060;25.624;2023-08-07T04:57:26;12.27;;;3.50;;
63801;SDS011;49949;43.060;25.624;2023-08-07T04:59:52;4.72;;;2.00;;
63801;SDS011;49949;43.060;25.624;2023-08-07T05:02:18;3.38;;;2.20;;
63801;SDS011;49949;43.060;25.624;2023-08-07T05:04:44;1.90;;;1.80;;
63801;SDS011;49949;43.060;25.624;2023-08-07T05:07:12;5.97;;;2.63;;
63801;SDS011;49949;43.060;25.624;2023-08-07T05:09:37;6.38;;;2.20;;
63801;SDS011;49949;43.060;25.624;2023-08-07T05:12:03;7.63;;;2.30;;
63801;SDS011;49949;43.060;25.624;2023-08-07T05:14:31;6.35;;;2.60;;
63801;SDS011;49949;43.060;25.624;2023-08-07T05:16:57;3.60;;;1.85;;
63801;SDS011;49949;43.060;25.624;2023-08-07T05:19:24;8.85;;;2.00;;
63801;SDS011;49949;43.060;25.624;2023-08-07T05:21:50;5.80;;;2.10;;
63801;SDS011;49949;43.060;25.624;2023-08-07T05:24:16;2.95;;;2.25;;
63801;SDS011;49949;43.060;25.624;2023-08-07T05:26:42;2.10;;;1.95;;
63801;SDS011;49949;43.060;25.624;2023-08-07T05:29:08;3.05;;;2.00;;
63801;SDS011;49949;43.060;25.624;2023-08-07T05:31:33;4.45;;;2.03;;
63801;SDS011;49949;43.060;25.624;2023-08-07T05:33:59;2.63;;;1.88;;
63801;SDS011;49949;43.060;25.624;2023-08-07T05:36:25;6.60;;;2.15;;
63801;SDS011;49949;43.060;25.624;2023-08-07T05:38:51;4.03;;;2.05;;
63801;SDS011;49949;43.060;25.624;2023-08-07T05:41:17;3.88;;;1.98;;
63801;SDS011;49949;43.060;25.624;2023-08-07T05:43:42;6.00;;;1.98;;
63801;SDS011;49949;43.060;25.624;2023-08-07T05:46:08;2.20;;;1.52;;
63801;SDS011;49949;43.060;25.624;2023-08-07T05:48:34;5.28;;;2.08;;
63801;SDS011;49949;43.060;25.624;2023-08-07T05:51:00;4.53;;;1.55;;
63801;SDS011;49949;43.060;25.624;2023-08-07T05:53:26;1.92;;;1.70;;
63801;SDS011;49949;43.060;25.624;2023-08-07T05:55:52;1.70;;;1.60;;
63801;SDS011;49949;43.060;25.624;2023-08-07T05:58:18;1.88;;;1.77;;
63801;SDS011;49949;43.060;25.624;2023-08-07T06:00:44;1.67;;;1.58;;
63801;SDS011;49949;43.060;25.624;2023-08-07T06:03:09;3.20;;;1.98;;
63801;SDS011;49949;43.060;25.624;2023-08-07T06:05:35;1.88;;;1.77;;
63801;SDS011;49949;43.060;25.624;2023-08-07T06:08:01;5.93;;;1.90;;
63801;SDS011;49949;43.060;25.624;2023-08-07T06:10:27;2.83;;;2.17;;
63801;SDS011;49949;43.060;25.624;2023-08-07T06:12:53;1.90;;;1.80;;
63801;SDS011;49949;43.060;25.624;2023-08-07T06:15:18;1.67;;;1.58;;
63801;SDS011;49949;43.060;25.624;2023-08-07T06:17:45;2.35;;;1.90;;
63801;SDS011;49949;43.060;25.624;2023-08-07T06:20:11;2.67;;;1.90;;
63801;SDS011;49949;43.060;25.624;2023-08-07T06:22:39;7.10;;;1.95;;
63801;SDS011;49949;43.060;25.624;2023-08-07T06:25:05;5.32;;;1.90;;
63801;SDS011;49949;43.060;25.624;2023-08-07T06:27:32;3.35;;;1.67;;
63801;SDS011;49949;43.060;25.624;2023-08-07T06:29:58;2.70;;;1.42;;
63801;SDS011;49949;43.060;25.624;2023-08-07T06:32:24;1.70;;;1.60;;
63801;SDS011;49949;43.060;25.624;2023-08-07T06:34:51;2.00;;;1.70;;
63801;SDS011;49949;43.060;25.624;2023-08-07T06:37:17;2.10;;;1.50;;
63801;SDS011;49949;43.060;25.624;2023-08-07T06:39:43;1.55;;;1.45;;
63801;SDS011;49949;43.060;25.624;2023-08-07T06:42:09;4.93;;;1.73;;
63801;SDS011;49949;43.060;25.624;2023-08-07T06:44:35;3.97;;;1.52;;
63801;SDS011;49949;43.060;25.624;2023-08-07T06:47:00;1.70;;;1.50;;
63801;SDS011;49949;43.060;25.624;2023-08-07T06:49:26;3.17;;;1.70;;
63801;SDS011;49949;43.060;25.624;2023-08-07T06:51:52;6.05;;;2.00;;
63801;SDS011;49949;43.060;25.624;2023-08-07T06:54:18;19.20;;;2.25;;
63801;SDS011;49949;43.060;25.624;2023-08-07T06:56:43;48.08;;;3.75;;
63801;SDS011;49949;43.060;25.624;2023-08-07T06:59:09;4.85;;;2.10;;
63801;SDS011;49949;43.060;25.624;2023-08-07T07:01:35;4.95;;;1.63;;
63801;SDS011;49949;43.060;25.624;2023-08-07T07:04:01;8.20;;;1.70;;
63801;SDS011;49949;43.060;25.624;2023-08-07T07:06:27;2.58;;;1.70;;
63801;SDS011;49949;43.060;25.624;2023-08-07T07:08:53;5.38;;;1.50;;
63801;SDS011;49949;43.060;25.624;2023-08-07T07:11:19;12.60;;;1.88;;
63801;SDS011;49949;43.060;25.624;2023-08-07T07:13:47;7.85;;;1.90;;
63801;SDS011;49949;43.060;25.624;2023-08-07T07:16:14;7.25;;;1.63;;
63801;SDS011;49949;43.060;25.624;2023-08-07T07:18:40;2.05;;;1.60;;
63801;SDS011;49949;43.060;25.624;2023-08-07T07:21:05;1.88;;;1.50;;
63801;SDS011;49949;43.060;25.624;2023-08-07T07:23:31;3.50;;;1.70;;
63801;SDS011;49949;43.060;25.624;2023-08-07T07:25:57;3.10;;;1.80;;
63801;SDS011;49949;43.060;25.624;2023-08-07T07:28:23;4.72;;;1.40;;
63801;SDS011;49949;43.060;25.624;2023-08-07T07:30:49;1.95;;;1.60;;
63801;SDS011;49949;43.060;25.624;2023-08-07T07:33:15;1.83;;;1.55;;
63801;SDS011;49949;43.060;25.624;2023-08-07T07:35:41;1.77;;;1.67;;
63801;SDS011;49949;43.060;25.624;2023-08-07T07:38:07;2.08;;;1.63;;
63801;SDS011;49949;43.060;25.624;2023-08-07T07:40:36;1.50;;;1.40;;
63801;SDS011;49949;43.060;25.624;2023-08-07T07:43:04;2.40;;;1.45;;
63801;SDS011;49949;43.060;25.624;2023-08-07T07:45:29;2.10;;;1.58;;
63801;SDS011;49949;43.060;25.624;2023-08-07T07:47:55;5.90;;;1.20;;
63801;SDS011;49949;43.060;25.624;2023-08-07T07:50:21;10.05;;;1.80;;
63801;SDS011;49949;43.060;25.624;2023-08-07T07:52:47;3.05;;;1.23;;
63801;SDS011;49949;43.060;25.624;2023-08-07T07:55:12;1.75;;;1.40;;
63801;SDS011;49949;43.060;25.624;2023-08-07T07:57:39;1.30;;;1.15;;
63801;SDS011;49949;43.060;25.624;2023-08-07T08:00:06;1.23;;;1.20;;
63801;SDS011;49949;43.060;25.624;2023-08-07T08:02:35;6.70;;;1.70;;
63801;SDS011;49949;43.060;25.624;2023-08-07T08:05:01;13.07;;;1.40;;
63801;SDS011;49949;43.060;25.624;2023-08-07T08:07:27;3.55;;;1.13;;
63801;SDS011;49949;43.060;25.624;2023-08-07T08:09:53;2.70;;;1.10;;
63801;SDS011;49949;43.060;25.624;2023-08-07T08:12:19;5.35;;;1.23;;
63801;SDS011;49949;43.060;25.624;2023-08-07T08:14:46;4.03;;;1.00;;
63801;SDS011;49949;43.060;25.624;2023-08-07T08:17:13;7.40;;;1.15;;
63801;SDS011;49949;43.060;25.624;2023-08-07T08:19:39;10.43;;;1.50;;
63801;SDS011;49949;43.060;25.624;2023-08-07T08:22:05;4.03;;;1.20;;
63801;SDS011;49949;43.060;25.624;2023-08-07T08:24:30;1.17;;;0.93;;
63801;SDS011;49949;43.060;25.624;2023-08-07T08:26:57;7.20;;;1.30;;
63801;SDS011;49949;43.060;25.624;2023-08-07T08:29:22;2.35;;;0.90;;
63801;SDS011;49949;43.060;25.624;2023-08-07T08:31:48;9.00;;;1.50;;
63801;SDS011;49949;43.060;25.624;2023-08-07T08:34:14;6.55;;;1.00;;
63801;SDS011;49949;43.060;25.624;2023-08-07T08:36:39;3.88;;;1.13;;
63801;SDS011;49949;43.060;25.624;2023-08-07T08:39:05;5.43;;;1.20;;
63801;SDS011;49949;43.060;25.624;2023-08-07T08:41:31;9.88;;;1.00;;
63801;SDS011;49949;43.060;25.624;2023-08-07T08:43:57;1.52;;;0.90;;
63801;SDS011;49949;43.060;25.624;2023-08-07T08:46:24;3.00;;;0.65;;
63801;SDS011;49949;43.060;25.624;2023-08-07T08:48:55;4.22;;;0.75;;
63801;SDS011;49949;43.060;25.624;2023-08-07T08:51:22;3.47;;;0.90;;
63801;SDS011;49949;43.060;25.624;2023-08-07T08:53:50;2.72;;;0.68;;
63801;SDS011;49949;43.060;25.624;2023-08-07T08:56:17;6.03;;;1.23;;
63801;SDS011;49949;43.060;25.624;2023-08-07T08:58:43;5.22;;;1.02;;
63801;SDS011;49949;43.060;25.624;2023-08-07T09:01:09;2.55;;;0.75;;
63801;SDS011;49949;43.060;25.624;2023-08-07T09:03:35;5.45;;;1.27;;
63801;SDS011;49949;43.060;25.624;2023-08-07T09:06:01;3.47;;;1.38;;
63801;SDS011;49949;43.060;25.624;2023-08-07T09:08:27;3.08;;;1.10;;
63801;SDS011;49949;43.060;25.624;2023-08-07T09:10:56;4.85;;;1.60;;
63801;SDS011;49949;43.060;25.624;2023-08-07T09:13:23;3.53;;;1.15;;
63801;SDS011;49949;43.060;25.624;2023-08-07T09:15:52;20.75;;;1.40;;
63801;SDS011;49949;43.060;25.624;2023-08-07T09:18:18;1.02;;;0.68;;
63801;SDS011;49949;43.060;25.624;2023-08-07T09:20:48;7.05;;;0.90;;
63801;SDS011;49949;43.060;25.624;2023-08-07T09:23:17;7.82;;;1.20;;
63801;SDS011;49949;43.060;25.624;2023-08-07T09:25:43;7.78;;;0.90;;
63801;SDS011;49949;43.060;25.624;2023-08-07T09:28:09;6.00;;;0.95;;
63801;SDS011;49949;43.060;25.624;2023-08-07T09:30:36;11.88;;;0.93;;
63801;SDS011;49949;43.060;25.624;2023-08-07T09:33:03;9.25;;;1.20;;
63801;SDS011;49949;43.060;25.624;2023-08-07T09:35:30;4.70;;;0.60;;
63801;SDS011;49949;43.060;25.624;2023-08-07T09:37:56;3.72;;;0.70;;
63801;SDS011;49949;43.060;25.624;2023-08-07T09:40:22;5.45;;;0.85;;
63801;SDS011;49949;43.060;25.624;2023-08-07T09:42:52;8.52;;;0.95;;
63801;SDS011;49949;43.060;25.624;2023-08-07T09:45:25;2.67;;;0.70;;
63801;SDS011;49949;43.060;25.624;2023-08-07T09:47:59;7.40;;;1.20;;
63801;SDS011;49949;43.060;25.624;2023-08-07T09:50:29;0.88;;;0.82;;
63801;SDS011;49949;43.060;25.624;2023-08-07T09:52:56;5.07;;;1.00;;
63801;SDS011;49949;43.060;25.624;2023-08-07T09:55:25;1.58;;;0.70;;
63801;SDS011;49949;43.060;25.624;2023-08-07T09:57:52;1.90;;;0.73;;
63801;SDS011;49949;43.060;25.624;2023-08-07T10:00:18;8.23;;;0.77;;
63801;SDS011;49949;43.060;25.624;2023-08-07T10:02:47;6.95;;;0.65;;
63801;SDS011;49949;43.060;25.624;2023-08-07T10:05:14;4.80;;;1.27;;
63801;SDS011;49949;43.060;25.624;2023-08-07T10:07:40;6.15;;;0.70;;
63801;SDS011;49949;43.060;25.624;2023-08-07T10:10:07;2.05;;;0.70;;
63801;SDS011;49949;43.060;25.624;2023-08-07T10:12:33;4.82;;;0.90;;
63801;SDS011;49949;43.060;25.624;2023-08-07T10:14:59;7.70;;;0.70;;
63801;SDS011;49949;43.060;25.624;2023-08-07T10:17:26;5.50;;;1.00;;
63801;SDS011;49949;43.060;25.624;2023-08-07T10:19:53;2.30;;;0.90;;
63801;SDS011;49949;43.060;25.624;2023-08-07T10:22:19;6.13;;;1.00;;
63801;SDS011;49949;43.060;25.624;2023-08-07T10:24:48;5.13;;;0.77;;
63801;SDS011;49949;43.060;25.624;2023-08-07T10:27:15;38.30;;;1.98;;
63801;SDS011;49949;43.060;25.624;2023-08-07T10:29:47;4.70;;;0.80;;
63801;SDS011;49949;43.060;25.624;2023-08-07T10:32:14;8.52;;;0.50;;
63801;SDS011;49949;43.060;25.624;2023-08-07T10:34:46;2.80;;;0.80;;
63801;SDS011;49949;43.060;25.624;2023-08-07T10:40:16;3.83;;;0.70;;
63801;SDS011;49949;43.060;25.624;2023-08-07T10:45:20;4.57;;;0.68;;
63801;SDS011;49949;43.060;25.624;2023-08-07T10:48:29;8.40;;;1.08;;
63801;SDS011;49949;43.060;25.624;2023-08-07T10:50:49;6.38;;;0.95;;
63801;SDS011;49949;43.060;25.624;2023-08-07T10:53:31;1.88;;;0.60;;
63801;SDS011;49949;43.060;25.624;2023-08-07T10:56:07;1.67;;;0.60;;
63801;SDS011;49949;43.060;25.624;2023-08-07T10:58:35;2.72;;;0.90;;
63801;SDS011;49949;43.060;25.624;2023-08-07T11:01:18;8.30;;;0.80;;
63801;SDS011;49949;43.060;25.624;2023-08-07T11:04:04;12.57;;;1.30;;
63801;SDS011;49949;43.060;25.624;2023-08-07T11:09:01;9.77;;;1.10;;
63801;SDS011;49949;43.060;25.624;2023-08-07T11:11:29;2.55;;;0.65;;
63801;SDS011;49949;43.060;25.624;2023-08-07T11:14:04;9.43;;;1.60;;
63801;SDS011;49949;43.060;25.624;2023-08-07T11:16:43;5.18;;;0.90;;
63801;SDS011;49949;43.060;25.624;2023-08-07T11:19:11;11.93;;;1.20;;
63801;SDS011;49949;43.060;25.624;2023-08-07T11:21:39;25.13;;;1.65;;
63801;SDS011;49949;43.060;25.624;2023-08-07T11:24:06;9.45;;;1.00;;
63801;SDS011;49949;43.060;25.624;2023-08-07T11:26:31;2.20;;;0.50;;
63801;SDS011;49949;43.060;25.624;2023-08-07T11:28:57;1.17;;;0.63;;
63801;SDS011;49949;43.060;25.624;2023-08-07T11:31:23;9.57;;;1.20;;
63801;SDS011;49949;43.060;25.624;2023-08-07T11:33:51;0.60;;;0.50;;
63801;SDS011;49949;43.060;25.624;2023-08-07T11:36:17;3.95;;;0.80;;
63801;SDS011;49949;43.060;25.624;2023-08-07T11:38:43;0.50;;;0.50;;
63801;SDS011;49949;43.060;25.624;2023-08-07T11:41:10;1.52;;;0.70;;
63801;SDS011;49949;43.060;25.624;2023-08-07T11:43:37;0.88;;;0.63;;
63801;SDS011;49949;43.060;25.624;2023-08-07T11:46:04;19.00;;;1.58;;
63801;SDS011;49949;43.060;25.624;2023-08-07T11:48:31;7.75;;;0.80;;
63801;SDS011;49949;43.060;25.624;2023-08-07T11:50:58;4.30;;;0.75;;
63801;SDS011;49949;43.060;25.624;2023-08-07T11:53:25;0.75;;;0.40;;
63801;SDS011;49949;43.060;25.624;2023-08-07T11:56:00;0.60;;;0.60;;
63801;SDS011;49949;43.060;25.624;2023-08-07T11:58:33;11.65;;;1.33;;
63801;SDS011;49949;43.060;25.624;2023-08-07T12:01:05;5.43;;;0.90;;
63801;SDS011;49949;43.060;25.624;2023-08-07T12:03:35;1.90;;;0.70;;
63801;SDS011;49949;43.060;25.624;2023-08-07T12:06:04;10.10;;;1.30;;
63801;SDS011;49949;43.060;25.624;2023-08-07T12:08:31;1.88;;;0.85;;
63801;SDS011;49949;43.060;25.624;2023-08-07T12:11:02;12.05;;;1.00;;
63801;SDS011;49949;43.060;25.624;2023-08-07T12:13:32;2.95;;;0.90;;
63801;SDS011;49949;43.060;25.624;2023-08-07T12:16:00;2.97;;;0.73;;
63801;SDS011;49949;43.060;25.624;2023-08-07T12:18:26;0.70;;;0.50;;
63801;SDS011;49949;43.060;25.624;2023-08-07T12:20:54;3.85;;;0.88;;
63801;SDS011;49949;43.060;25.624;2023-08-07T12:23:25;4.30;;;0.57;;
63801;SDS011;49949;43.060;25.624;2023-08-07T12:25:51;6.00;;;1.10;;
63801;SDS011;49949;43.060;25.624;2023-08-07T12:28:18;0.57;;;0.57;;
63801;SDS011;49949;43.060;25.624;2023-08-07T12:30:47;0.50;;;0.50;;
63801;SDS011;49949;43.060;25.624;2023-08-07T12:33:13;1.65;;;0.80;;
63801;SDS011;49949;43.060;25.624;2023-08-07T12:35:39;28.65;;;1.40;;
63801;SDS011;49949;43.060;25.624;2023-08-07T12:38:06;3.85;;;1.05;;
63801;SDS011;49949;43.060;25.624;2023-08-07T12:40:33;0.50;;;0.50;;
63801;SDS011;49949;43.060;25.624;2023-08-07T12:43:01;4.80;;;0.90;;
63801;SDS011;49949;43.060;25.624;2023-08-07T12:45:27;0.52;;;0.52;;
63801;SDS011;49949;43.060;25.624;2023-08-07T12:47:53;2.70;;;0.80;;
63801;SDS011;49949;43.060;25.624;2023-08-07T12:50:18;7.30;;;0.80;;
63801;SDS011;49949;43.060;25.624;2023-08-07T12:52:44;1.10;;;0.70;;
63801;SDS011;49949;43.060;25.624;2023-08-07T12:55:10;3.35;;;0.70;;
63801;SDS011;49949;43.060;25.624;2023-08-07T12:57:42;4.78;;;0.70;;
63801;SDS011;49949;43.060;25.624;2023-08-07T13:00:09;0.65;;;0.65;;
63801;SDS011;49949;43.060;25.624;2023-08-07T13:02:40;4.10;;;0.68;;
63801;SDS011;49949;43.060;25.624;2023-08-07T13:05:10;2.40;;;0.75;;
63801;SDS011;49949;43.060;25.624;2023-08-07T13:07:37;4.82;;;0.63;;
63801;SDS011;49949;43.060;25.624;2023-08-07T13:10:04;0.50;;;0.43;;
63801;SDS011;49949;43.060;25.624;2023-08-07T13:12:35;0.32;;;0.32;;
63801;SDS011;49949;43.060;25.624;2023-08-07T13:15:02;0.50;;;0.50;;
63801;SDS011;49949;43.060;25.624;2023-08-07T13:17:30;7.45;;;0.70;;
63801;SDS011;49949;43.060;25.624;2023-08-07T13:19:55;0.57;;;0.57;;
63801;SDS011;49949;43.060;25.624;2023-08-07T13:22:22;3.75;;;0.32;;
63801;SDS011;49949;43.060;25.624;2023-08-07T13:24:47;12.52;;;0.80;;
63801;SDS011;49949;43.060;25.624;2023-08-07T13:27:13;0.60;;;0.60;;
63801;SDS011;49949;43.060;25.624;2023-08-07T13:29:39;2.10;;;0.47;;
63801;SDS011;49949;43.060;25.624;2023-08-07T13:32:05;7.32;;;1.15;;
63801;SDS011;49949;43.060;25.624;2023-08-07T13:34:36;5.43;;;0.60;;
63801;SDS011;49949;43.060;25.624;2023-08-07T13:37:03;0.60;;;0.50;;
63801;SDS011;49949;43.060;25.624;2023-08-07T13:39:30;11.95;;;1.20;;
63801;SDS011;49949;43.060;25.624;2023-08-07T13:41:56;38.80;;;2.70;;
63801;SDS011;49949;43.060;25.624;2023-08-07T13:44:22;7.97;;;0.75;;
63801;SDS011;49949;43.060;25.624;2023-08-07T13:46:48;24.52;;;1.60;;
63801;SDS011;49949;43.060;25.624;2023-08-07T13:49:14;14.35;;;1.05;;
63801;SDS011;49949;43.060;25.624;2023-08-07T13:51:40;12.55;;;0.85;;
63801;SDS011;49949;43.060;25.624;2023-08-07T13:54:06;0.30;;;0.30;;
63801;SDS011;49949;43.060;25.624;2023-08-07T13:56:33;0.65;;;0.30;;
63801;SDS011;49949;43.060;25.624;2023-08-07T13:58:59;2.78;;;0.65;;
63801;SDS011;49949;43.060;25.624;2023-08-07T14:01:25;5.75;;;0.45;;
63801;SDS011;49949;43.060;25.624;2023-08-07T14:03:51;1.42;;;0.60;;
63801;SDS011;49949;43.060;25.624;2023-08-07T14:06:16;6.93;;;0.75;;
63801;SDS011;49949;43.060;25.624;2023-08-07T14:08:42;5.10;;;0.68;;
63801;SDS011;49949;43.060;25.624;2023-08-07T14:11:08;0.90;;;0.30;;
63801;SDS011;49949;43.060;25.624;2023-08-07T14:13:33;0.88;;;0.40;;
63801;SDS011;49949;43.060;25.624;2023-08-07T14:15:59;16.10;;;2.08;;
63801;SDS011;49949;43.060;25.624;2023-08-07T14:18:25;2.17;;;0.60;;
63801;SDS011;49949;43.060;25.624;2023-08-07T14:20:52;9.45;;;0.90;;
63801;SDS011;49949;43.060;25.624;2023-08-07T14:23:17;1.42;;;0.60;;
63801;SDS011;49949;43.060;25.624;2023-08-07T14:25:44;4.95;;;1.02;;
63801;SDS011;49949;43.060;25.624;2023-08-07T14:28:10;0.52;;;0.30;;
63801;SDS011;49949;43.060;25.624;2023-08-07T14:30:36;2.72;;;0.40;;
63801;SDS011;49949;43.060;25.624;2023-08-07T14:33:01;3.22;;;0.70;;
63801;SDS011;49949;43.060;25.624;2023-08-07T14:35:27;0.40;;;0.40;;
63801;SDS011;49949;43.060;25.624;2023-08-07T14:37:53;0.50;;;0.50;;
63801;SDS011;49949;43.060;25.624;2023-08-07T14:40:18;2.92;;;0.50;;
63801;SDS011;49949;43.060;25.624;2023-08-07T14:42:44;9.18;;;0.68;;
63801;SDS011;49949;43.060;25.624;2023-08-07T14:45:10;3.67;;;1.20;;
63801;SDS011;49949;43.060;25.624;2023-08-07T14:47:36;0.82;;;0.70;;